Aviation Digital Data Service (ADDS)

Output produced by METARs form (0253 UTC 16 July 2019)
found at http://www.aviationweather.gov/metar/data/
 
METAR text: OEDF 160200Z 30010KT CAVOK 31/02 Q0996 NOSIG
Conditions at: OEDF (KING FAHD INTL , SA) observed 0200 UTC 16 July 2019
Temperature: 31.0°C (88°F)
Dewpoint: 2.0°C (36°F) [RH = 16%]
Pressure (altimeter): 29.41 inches Hg (996.0 mb)
Winds: from the WNW (300 degrees) at 12 MPH (10 knots; 5.1 m/s)
Visibility: 6 or more miles (10+ km)
Ceiling: ceiling and visibility are OK
Clouds: unknown
Weather: no significant weather observed at this time

METAR text: OEDF 160100Z 29010KT CAVOK 31/03 Q0995 NOSIG
Conditions at: OEDF (KING FAHD INTL , SA) observed 0100 UTC 16 July 2019
Temperature: 31.0°C (88°F)
Dewpoint: 3.0°C (37°F) [RH = 17%]
Pressure (altimeter): 29.38 inches Hg (995.0 mb)
Winds: from the WNW (290 degrees) at 12 MPH (10 knots; 5.1 m/s)
Visibility: 6 or more miles (10+ km)
Ceiling: ceiling and visibility are OK
Clouds: unknown
Weather: no significant weather observed at this time

METAR text: OEDF 160000Z 28009KT CAVOK 31/03 Q0996 NOSIG
Conditions at: OEDF (KING FAHD INTL , SA) observed 0000 UTC 16 July 2019
Temperature: 31.0°C (88°F)
Dewpoint: 3.0°C (37°F) [RH = 17%]
Pressure (altimeter): 29.41 inches Hg (996.0 mb)
Winds: from the W (280 degrees) at 10 MPH (9 knots; 4.6 m/s)
Visibility: 6 or more miles (10+ km)
Ceiling: ceiling and visibility are OK
Clouds: unknown
Weather: no significant weather observed at this time

METAR text: OEDF 152300Z 28010KT CAVOK 30/04 Q0996 NOSIG
Conditions at: OEDF (KING FAHD INTL , SA) observed 2300 UTC 15 July 2019
Temperature: 30.0°C (86°F)
Dewpoint: 4.0°C (39°F) [RH = 19%]
Pressure (altimeter): 29.41 inches Hg (996.0 mb)
Winds: from the W (280 degrees) at 12 MPH (10 knots; 5.1 m/s)
Visibility: 6 or more miles (10+ km)
Ceiling: ceiling and visibility are OK
Clouds: unknown
Weather: no significant weather observed at this time

METAR text: OEDF 152200Z 27009KT CAVOK 31/04 Q0996 NOSIG
Conditions at: OEDF (KING FAHD INTL , SA) observed 2200 UTC 15 July 2019
Temperature: 31.0°C (88°F)
Dewpoint: 4.0°C (39°F) [RH = 18%]
Pressure (altimeter): 29.41 inches Hg (996.0 mb)
Winds: from the W (270 degrees) at 10 MPH (9 knots; 4.6 m/s)
Visibility: 6 or more miles (10+ km)
Ceiling: ceiling and visibility are OK
Clouds: unknown
Weather: no significant weather observed at this time

METAR text: OEDF 152100Z 28009KT CAVOK 32/05 Q0996 NOSIG
Conditions at: OEDF (KING FAHD INTL , SA) observed 2100 UTC 15 July 2019
Temperature: 32.0°C (90°F)
Dewpoint: 5.0°C (41°F) [RH = 18%]
Pressure (altimeter): 29.41 inches Hg (996.0 mb)
Winds: from the W (280 degrees) at 10 MPH (9 knots; 4.6 m/s)
Visibility: 6 or more miles (10+ km)
Ceiling: ceiling and visibility are OK
Clouds: unknown
Weather: no significant weather observed at this time

METAR text: OEDF 152000Z 28007KT CAVOK 32/07 Q0997 NOSIG
Conditions at: OEDF (KING FAHD INTL , SA) observed 2000 UTC 15 July 2019
Temperature: 32.0°C (90°F)
Dewpoint: 7.0°C (45°F) [RH = 21%]
Pressure (altimeter): 29.44 inches Hg (997.0 mb)
Winds: from the W (280 degrees) at 8 MPH (7 knots; 3.6 m/s)
Visibility: 6 or more miles (10+ km)
Ceiling: ceiling and visibility are OK
Clouds: unknown
Weather: no significant weather observed at this time

METAR text: OEDF 151900Z 28006KT CAVOK 34/06 Q0997 NOSIG
Conditions at: OEDF (KING FAHD INTL , SA) observed 1900 UTC 15 July 2019
Temperature: 34.0°C (93°F)
Dewpoint: 6.0°C (43°F) [RH = 18%]
Pressure (altimeter): 29.44 inches Hg (997.0 mb)
Winds: from the W (280 degrees) at 7 MPH (6 knots; 3.1 m/s)
Visibility: 6 or more miles (10+ km)
Ceiling: ceiling and visibility are OK
Clouds: unknown
Weather: no significant weather observed at this time

METAR text: OEDF 151800Z 29005KT CAVOK 36/08 Q0997 NOSIG
Conditions at: OEDF (KING FAHD INTL , SA) observed 1800 UTC 15 July 2019
Temperature: 36.0°C (97°F)
Dewpoint: 8.0°C (46°F) [RH = 18%]
Pressure (altimeter): 29.44 inches Hg (997.0 mb)
Winds: from the WNW (290 degrees) at 6 MPH (5 knots; 2.6 m/s)
Visibility: 6 or more miles (10+ km)
Ceiling: ceiling and visibility are OK
Clouds: unknown
Weather: no significant weather observed at this time

METAR text: OEDF 151700Z 34005KT CAVOK 36/08 Q0997 NOSIG
Conditions at: OEDF (KING FAHD INTL , SA) observed 1700 UTC 15 July 2019
Temperature: 36.0°C (97°F)
Dewpoint: 8.0°C (46°F) [RH = 18%]
Pressure (altimeter): 29.44 inches Hg (997.0 mb)
Winds: from the NNW (340 degrees) at 6 MPH (5 knots; 2.6 m/s)
Visibility: 6 or more miles (10+ km)
Ceiling: ceiling and visibility are OK
Clouds: unknown
Weather: no significant weather observed at this time

METAR text: OEDF 151600Z 35009KT CAVOK 38/08 Q0996 NOSIG
Conditions at: OEDF (KING FAHD INTL , SA) observed 1600 UTC 15 July 2019
Temperature: 38.0°C (100°F)
Dewpoint: 8.0°C (46°F) [RH = 16%]
Pressure (altimeter): 29.41 inches Hg (996.0 mb)
Winds: from the N (350 degrees) at 10 MPH (9 knots; 4.6 m/s)
Visibility: 6 or more miles (10+ km)
Ceiling: ceiling and visibility are OK
Clouds: unknown
Weather: no significant weather observed at this time

METAR text: OEDF 151500Z 36013KT CAVOK 39/07 Q0996 NOSIG
Conditions at: OEDF (KING FAHD INTL , SA) observed 1500 UTC 15 July 2019
Temperature: 39.0°C (102°F)
Dewpoint: 7.0°C (45°F) [RH = 14%]
Pressure (altimeter): 29.41 inches Hg (996.0 mb)
Winds: from the N (360 degrees) at 15 MPH (13 knots; 6.7 m/s)
Visibility: 6 or more miles (10+ km)
Ceiling: ceiling and visibility are OK
Clouds: unknown
Weather: no significant weather observed at this time

METAR text: OEDF 151400Z 36016KT CAVOK 40/06 Q0996 NOSIG
Conditions at: OEDF (KING FAHD INTL , SA) observed 1400 UTC 15 July 2019
Temperature: 40.0°C (104°F)
Dewpoint: 6.0°C (43°F) [RH = 13%]
Pressure (altimeter): 29.41 inches Hg (996.0 mb)
Winds: from the N (360 degrees) at 18 MPH (16 knots; 8.2 m/s)
Visibility: 6 or more miles (10+ km)
Ceiling: ceiling and visibility are OK
Clouds: unknown
Weather: no significant weather observed at this time

METAR text: OEDF 151300Z 36018KT CAVOK 41/09 Q0997 NOSIG
Conditions at: OEDF (KING FAHD INTL , SA) observed 1300 UTC 15 July 2019
Temperature: 41.0°C (106°F)
Dewpoint: 9.0°C (48°F) [RH = 15%]
Pressure (altimeter): 29.44 inches Hg (997.0 mb)
Winds: from the N (360 degrees) at 21 MPH (18 knots; 9.3 m/s)
Visibility: 6 or more miles (10+ km)
Ceiling: ceiling and visibility are OK
Clouds: unknown
Weather: no significant weather observed at this time

METAR text: OEDF 151200Z 01020KT CAVOK 42/08 Q0997 NOSIG
Conditions at: OEDF (KING FAHD INTL , SA) observed 1200 UTC 15 July 2019
Temperature: 42.0°C (108°F)
Dewpoint: 8.0°C (46°F) [RH = 13%]
Pressure (altimeter): 29.44 inches Hg (997.0 mb)
Winds: from the N (10 degrees) at 23 MPH (20 knots; 10.3 m/s)
Visibility: 6 or more miles (10+ km)
Ceiling: ceiling and visibility are OK
Clouds: unknown
Weather: no significant weather observed at this time

METAR text: OEDF 151100Z 34023KT CAVOK 43/06 Q0997 NOSIG
Conditions at: OEDF (KING FAHD INTL , SA) observed 1100 UTC 15 July 2019
Temperature: 43.0°C (109°F)
Dewpoint: 6.0°C (43°F) [RH = 11%]
Pressure (altimeter): 29.44 inches Hg (997.0 mb)
Winds: from the NNW (340 degrees) at 26 MPH (23 knots; 11.8 m/s)
Visibility: 6 or more miles (10+ km)
Ceiling: ceiling and visibility are OK
Clouds: unknown
Weather: no significant weather observed at this time

METAR text: OEDF 151000Z 35020KT CAVOK 43/07 Q0998 NOSIG
Conditions at: OEDF (KING FAHD INTL , SA) observed 1000 UTC 15 July 2019
Temperature: 43.0°C (109°F)
Dewpoint: 7.0°C (45°F) [RH = 12%]
Pressure (altimeter): 29.47 inches Hg (998.0 mb)
Winds: from the N (350 degrees) at 23 MPH (20 knots; 10.3 m/s)
Visibility: 6 or more miles (10+ km)
Ceiling: ceiling and visibility are OK
Clouds: unknown
Weather: no significant weather observed at this time

METAR text: OEDF 150900Z 35021KT CAVOK 42/06 Q0998 NOSIG
Conditions at: OEDF (KING FAHD INTL , SA) observed 0900 UTC 15 July 2019
Temperature: 42.0°C (108°F)
Dewpoint: 6.0°C (43°F) [RH = 11%]
Pressure (altimeter): 29.47 inches Hg (998.0 mb)
Winds: from the N (350 degrees) at 24 MPH (21 knots; 10.8 m/s)
Visibility: 6 or more miles (10+ km)
Ceiling: ceiling and visibility are OK
Clouds: unknown
Weather: no significant weather observed at this time

METAR text: OEDF 150800Z 35023KT CAVOK 42/07 Q0999 NOSIG
Conditions at: OEDF (KING FAHD INTL , SA) observed 0800 UTC 15 July 2019
Temperature: 42.0°C (108°F)
Dewpoint: 7.0°C (45°F) [RH = 12%]
Pressure (altimeter): 29.50 inches Hg (999.0 mb)
Winds: from the N (350 degrees) at 26 MPH (23 knots; 11.8 m/s)
Visibility: 6 or more miles (10+ km)
Ceiling: ceiling and visibility are OK
Clouds: unknown
Weather: no significant weather observed at this time

METAR text: OEDF 150700Z 33017KT CAVOK 40/09 Q0999 NOSIG
Conditions at: OEDF (KING FAHD INTL , SA) observed 0700 UTC 15 July 2019
Temperature: 40.0°C (104°F)
Dewpoint: 9.0°C (48°F) [RH = 16%]
Pressure (altimeter): 29.50 inches Hg (999.0 mb)
Winds: from the NNW (330 degrees) at 20 MPH (17 knots; 8.7 m/s)
Visibility: 6 or more miles (10+ km)
Ceiling: ceiling and visibility are OK
Clouds: unknown
Weather: no significant weather observed at this time

METAR text: OEDF 150600Z 32014KT CAVOK 38/11 Q0999 NOSIG
Conditions at: OEDF (KING FAHD INTL , SA) observed 0600 UTC 15 July 2019
Temperature: 38.0°C (100°F)
Dewpoint: 11.0°C (52°F) [RH = 20%]
Pressure (altimeter): 29.50 inches Hg (999.0 mb)
Winds: from the NW (320 degrees) at 16 MPH (14 knots; 7.2 m/s)
Visibility: 6 or more miles (10+ km)
Ceiling: ceiling and visibility are OK
Clouds: unknown
Weather: no significant weather observed at this time

METAR text: OEDF 150500Z 31011KT CAVOK 35/07 Q0999 NOSIG
Conditions at: OEDF (KING FAHD INTL , SA) observed 0500 UTC 15 July 2019
Temperature: 35.0°C (95°F)
Dewpoint: 7.0°C (45°F) [RH = 18%]
Pressure (altimeter): 29.50 inches Hg (999.0 mb)
Winds: from the NW (310 degrees) at 13 MPH (11 knots; 5.7 m/s)
Visibility: 6 or more miles (10+ km)
Ceiling: ceiling and visibility are OK
Clouds: unknown
Weather: no significant weather observed at this time

METAR text: OEDF 150400Z 29009KT CAVOK 32/04 Q0999 NOSIG
Conditions at: OEDF (KING FAHD INTL , SA) observed 0400 UTC 15 July 2019
Temperature: 32.0°C (90°F)
Dewpoint: 4.0°C (39°F) [RH = 17%]
Pressure (altimeter): 29.50 inches Hg (999.0 mb)
Winds: from the WNW (290 degrees) at 10 MPH (9 knots; 4.6 m/s)
Visibility: 6 or more miles (10+ km)
Ceiling: ceiling and visibility are OK
Clouds: unknown
Weather: no significant weather observed at this time

METAR text: OEDF 150300Z 28007KT CAVOK 29/06 Q0998 NOSIG
Conditions at: OEDF (KING FAHD INTL , SA) observed 0300 UTC 15 July 2019
Temperature: 29.0°C (84°F)
Dewpoint: 6.0°C (43°F) [RH = 23%]
Pressure (altimeter): 29.47 inches Hg (998.0 mb)
Winds: from the W (280 degrees) at 8 MPH (7 knots; 3.6 m/s)
Visibility: 6 or more miles (10+ km)
Ceiling: ceiling and visibility are OK
Clouds: unknown
Weather: no significant weather observed at this time

METAR text: OEDF 150200Z 27007KT CAVOK 29/05 Q0998 NOSIG
Conditions at: OEDF (KING FAHD INTL , SA) observed 0200 UTC 15 July 2019
Temperature: 29.0°C (84°F)
Dewpoint: 5.0°C (41°F) [RH = 22%]
Pressure (altimeter): 29.47 inches Hg (998.0 mb)
Winds: from the W (270 degrees) at 8 MPH (7 knots; 3.6 m/s)
Visibility: 6 or more miles (10+ km)
Ceiling: ceiling and visibility are OK
Clouds: unknown
Weather: no significant weather observed at this time

METAR text: OEDF 150100Z 27009KT CAVOK 29/06 Q0998 NOSIG
Conditions at: OEDF (KING FAHD INTL , SA) observed 0100 UTC 15 July 2019
Temperature: 29.0°C (84°F)
Dewpoint: 6.0°C (43°F) [RH = 23%]
Pressure (altimeter): 29.47 inches Hg (998.0 mb)
Winds: from the W (270 degrees) at 10 MPH (9 knots; 4.6 m/s)
Visibility: 6 or more miles (10+ km)
Ceiling: ceiling and visibility are OK
Clouds: unknown
Weather: no significant weather observed at this time

METAR text: OEDF 150000Z 28007KT CAVOK 30/05 Q0998 NOSIG
Conditions at: OEDF (KING FAHD INTL , SA) observed 0000 UTC 15 July 2019
Temperature: 30.0°C (86°F)
Dewpoint: 5.0°C (41°F) [RH = 21%]
Pressure (altimeter): 29.47 inches Hg (998.0 mb)
Winds: from the W (280 degrees) at 8 MPH (7 knots; 3.6 m/s)
Visibility: 6 or more miles (10+ km)
Ceiling: ceiling and visibility are OK
Clouds: unknown
Weather: no significant weather observed at this time

METAR text: OEDF 142300Z 27007KT CAVOK 30/06 Q0998 NOSIG
Conditions at: OEDF (KING FAHD INTL , SA) observed 2300 UTC 14 July 2019
Temperature: 30.0°C (86°F)
Dewpoint: 6.0°C (43°F) [RH = 22%]
Pressure (altimeter): 29.47 inches Hg (998.0 mb)
Winds: from the W (270 degrees) at 8 MPH (7 knots; 3.6 m/s)
Visibility: 6 or more miles (10+ km)
Ceiling: ceiling and visibility are OK
Clouds: unknown
Weather: no significant weather observed at this time

METAR text: OEDF 142200Z 27006KT CAVOK 30/08 Q0998 NOSIG
Conditions at: OEDF (KING FAHD INTL , SA) observed 2200 UTC 14 July 2019
Temperature: 30.0°C (86°F)
Dewpoint: 8.0°C (46°F) [RH = 25%]
Pressure (altimeter): 29.47 inches Hg (998.0 mb)
Winds: from the W (270 degrees) at 7 MPH (6 knots; 3.1 m/s)
Visibility: 6 or more miles (10+ km)
Ceiling: ceiling and visibility are OK
Clouds: unknown
Weather: no significant weather observed at this time

METAR text: OEDF 142100Z 26006KT CAVOK 31/09 Q0999 NOSIG
Conditions at: OEDF (KING FAHD INTL , SA) observed 2100 UTC 14 July 2019
Temperature: 31.0°C (88°F)
Dewpoint: 9.0°C (48°F) [RH = 26%]
Pressure (altimeter): 29.50 inches Hg (999.0 mb)
Winds: from the W (260 degrees) at 7 MPH (6 knots; 3.1 m/s)
Visibility: 6 or more miles (10+ km)
Ceiling: ceiling and visibility are OK
Clouds: unknown
Weather: no significant weather observed at this time

METAR text: OEDF 142000Z 25002KT CAVOK 31/10 Q0999 NOSIG
Conditions at: OEDF (KING FAHD INTL , SA) observed 2000 UTC 14 July 2019
Temperature: 31.0°C (88°F)
Dewpoint: 10.0°C (50°F) [RH = 27%]
Pressure (altimeter): 29.50 inches Hg (999.0 mb)
Winds: from the WSW (250 degrees) at 2 MPH (2 knots; 1.0 m/s)
Visibility: 6 or more miles (10+ km)
Ceiling: ceiling and visibility are OK
Clouds: unknown
Weather: no significant weather observed at this time

METAR text: OEDF 141900Z 26002KT CAVOK 31/11 Q0999 NOSIG
Conditions at: OEDF (KING FAHD INTL , SA) observed 1900 UTC 14 July 2019
Temperature: 31.0°C (88°F)
Dewpoint: 11.0°C (52°F) [RH = 29%]
Pressure (altimeter): 29.50 inches Hg (999.0 mb)
Winds: from the W (260 degrees) at 2 MPH (2 knots; 1.0 m/s)
Visibility: 6 or more miles (10+ km)
Ceiling: ceiling and visibility are OK
Clouds: unknown
Weather: no significant weather observed at this time

METAR text: OEDF 141800Z 00000KT CAVOK 33/11 Q0999 NOSIG
Conditions at: OEDF (KING FAHD INTL , SA) observed 1800 UTC 14 July 2019
Temperature: 33.0°C (91°F)
Dewpoint: 11.0°C (52°F) [RH = 26%]
Pressure (altimeter): 29.50 inches Hg (999.0 mb)
Winds: calm
Visibility: 6 or more miles (10+ km)
Ceiling: ceiling and visibility are OK
Clouds: unknown
Weather: no significant weather observed at this time

METAR text: OEDF 141700Z 01003KT CAVOK 35/10 Q0999 NOSIG
Conditions at: OEDF (KING FAHD INTL , SA) observed 1700 UTC 14 July 2019
Temperature: 35.0°C (95°F)
Dewpoint: 10.0°C (50°F) [RH = 22%]
Pressure (altimeter): 29.50 inches Hg (999.0 mb)
Winds: from the N (10 degrees) at 3 MPH (3 knots; 1.5 m/s)
Visibility: 6 or more miles (10+ km)
Ceiling: ceiling and visibility are OK
Clouds: unknown
Weather: no significant weather observed at this time

METAR text: OEDF 141600Z 01008KT CAVOK 37/09 Q0998 NOSIG
Conditions at: OEDF (KING FAHD INTL , SA) observed 1600 UTC 14 July 2019
Temperature: 37.0°C (99°F)
Dewpoint: 9.0°C (48°F) [RH = 18%]
Pressure (altimeter): 29.47 inches Hg (998.0 mb)
Winds: from the N (10 degrees) at 9 MPH (8 knots; 4.1 m/s)
Visibility: 6 or more miles (10+ km)
Ceiling: ceiling and visibility are OK
Clouds: unknown
Weather: no significant weather observed at this time

METAR text: OEDF 141500Z 01012KT CAVOK 39/07 Q0998 NOSIG
Conditions at: OEDF (KING FAHD INTL , SA) observed 1500 UTC 14 July 2019
Temperature: 39.0°C (102°F)
Dewpoint: 7.0°C (45°F) [RH = 14%]
Pressure (altimeter): 29.47 inches Hg (998.0 mb)
Winds: from the N (10 degrees) at 14 MPH (12 knots; 6.2 m/s)
Visibility: 6 or more miles (10+ km)
Ceiling: ceiling and visibility are OK
Clouds: unknown
Weather: no significant weather observed at this time

Forecast for: OEDF (KING FAHD INTL , SA)
Text: TAF OEDF 152005Z 1600/1706 32012KT CAVOK
Forecast period: 0000 to 0600 UTC 16 July 2019
Forecast type: FROM: standard forecast or significant change
Winds: from the NW (320 degrees) at 14 MPH (12 knots; 6.2 m/s)
Visibility: 6 or more miles 10+ km)
Ceiling: unknown
Clouds: missing
Weather: NSW  (no significant weather)
Text: BECMG 1606/1608 35015G25KT
Forecast period: 0600 to 1800 UTC 16 July 2019
Forecast type: BECOMING: Conditions expected to become as follows by 0800 UTC 16 July 2019
Winds: from the N (350 degrees) at 17 MPH (15 knots; 7.7 m/s)
gusting to 29 MPH (25 knots; 12.9 m/s)
Visibility: 6 or more miles 10+ km)
Ceiling: unknown
Clouds: missing
Weather: NSW  (no significant weather)
Text: TEMPO 1606/1609 6000 NSC
Forecast period: 0600 to 0900 UTC 16 July 2019
Forecast type: TEMPORARY: The following changes expected for less than half the time period
Visibility: 4 miles (6 km)
Ceiling: unknown
Clouds: missing
Weather: no significant weather forecast for this period
Text: BECMG 1618/1620 30012KT
Forecast period: 1800 UTC 16 July 2019 to 0600 UTC 17 July 2019
Forecast type: BECOMING: Conditions expected to become as follows by 2000 UTC 16 July 2019
Winds: from the WNW (300 degrees) at 14 MPH (12 knots; 6.2 m/s)
Visibility: 6 or more miles 10+ km)
Ceiling: unknown
Clouds: missing
Weather: NSW  (no significant weather)